ELY5131 LLBG-LCLK
Flight info
| Callsign | ELY5131 |
|---|---|
| Flight time | N/A |
| Altitude | 34000 |
| Route | SUVAS DCT STEPA DCT APLON M32 PHA |
| Aircraft | B738/M-SDE2E3FGHIRWXY/LB1 |
Departure
| Time | 2026-05-05 18:16 |
|---|---|
| Airport | Ben Gurion International Airport (LLBG) |
Arrival
| Time | N/A |
|---|---|
| Airport | Larnaca International Airport (LCLK) |
| Time | Latitude | Longitude | Altitude | Speed | Heading |
|---|---|---|---|---|---|
| 2026-05-05 17:17 | 32.00096 | 34.87455 | 115 ft | 0 kts | 351° |
| 2026-05-05 18:05 | 32.00074 | 34.87458 | 115 ft | 4 kts | 359° |
| 2026-05-05 18:05 | 32.00048 | 34.87459 | 117 ft | 4 kts | 352° |
| 2026-05-05 18:05 | 32.00023 | 34.87468 | 114 ft | 4 kts | 324° |
| 2026-05-05 18:06 | 32.00004 | 34.87489 | 116 ft | 4 kts | 322° |
| 2026-05-05 18:06 | 31.99998 | 34.87497 | 117 ft | 3 kts | 26° |
| 2026-05-05 18:06 | 31.99992 | 34.87493 | 117 ft | 0 kts | 31° |
| 2026-05-05 18:09 | 32.00003 | 34.87500 | 119 ft | 6 kts | 31° |
| 2026-05-05 18:10 | 32.00061 | 34.87543 | 117 ft | 14 kts | 31° |
| 2026-05-05 18:10 | 32.00159 | 34.87614 | 117 ft | 18 kts | 31° |
| 2026-05-05 18:10 | 32.00267 | 34.87690 | 117 ft | 18 kts | 31° |
| 2026-05-05 18:10 | 32.00371 | 34.87764 | 118 ft | 17 kts | 31° |
| 2026-05-05 18:11 | 32.00471 | 34.87835 | 117 ft | 17 kts | 31° |
| 2026-05-05 18:11 | 32.00575 | 34.87910 | 117 ft | 18 kts | 31° |
| 2026-05-05 18:11 | 32.00692 | 34.87993 | 118 ft | 21 kts | 31° |
| 2026-05-05 18:11 | 32.00816 | 34.88083 | 115 ft | 21 kts | 32° |
| 2026-05-05 18:12 | 32.00937 | 34.88171 | 117 ft | 20 kts | 32° |
| 2026-05-05 18:12 | 32.01054 | 34.88256 | 117 ft | 19 kts | 31° |
| 2026-05-05 18:12 | 32.01168 | 34.88337 | 119 ft | 19 kts | 31° |
| 2026-05-05 18:12 | 32.01275 | 34.88421 | 120 ft | 18 kts | 40° |
| 2026-05-05 18:13 | 32.01363 | 34.88530 | 119 ft | 20 kts | 55° |
| 2026-05-05 18:13 | 32.01449 | 34.88675 | 118 ft | 22 kts | 62° |
| 2026-05-05 18:13 | 32.01498 | 34.88846 | 119 ft | 22 kts | 79° |
| 2026-05-05 18:13 | 32.01525 | 34.89019 | 119 ft | 21 kts | 80° |
| 2026-05-05 18:14 | 32.01553 | 34.89142 | 117 ft | 12 kts | 48° |
| 2026-05-05 18:14 | 32.01634 | 34.89153 | 117 ft | 12 kts | 349° |
| 2026-05-05 18:14 | 32.01712 | 34.89133 | 115 ft | 12 kts | 340° |
| 2026-05-05 18:14 | 32.01740 | 34.89059 | 118 ft | 2 kts | 259° |
| 2026-05-05 18:15 | 32.01708 | 34.88849 | 120 ft | 62 kts | 259° |
| 2026-05-05 18:15 | 32.01590 | 34.88074 | 119 ft | 128 kts | 260° |
| 2026-05-05 18:15 | 32.01396 | 34.86859 | 316 ft | 165 kts | 260° |
| 2026-05-05 18:16 | 32.01160 | 34.85531 | 1101 ft | 165 kts | 259° |
| 2026-05-05 18:16 | 32.00910 | 34.84218 | 1919 ft | 167 kts | 259° |
| 2026-05-05 18:16 | 32.00662 | 34.82828 | 2555 ft | 175 kts | 261° |
| 2026-05-05 18:16 | 32.00388 | 34.81456 | 3220 ft | 174 kts | 259° |
| 2026-05-05 18:17 | 32.00089 | 34.80048 | 3876 ft | 181 kts | 258° |
| 2026-05-05 18:17 | 31.99779 | 34.78587 | 4524 ft | 186 kts | 258° |
| 2026-05-05 18:17 | 31.99462 | 34.77095 | 5170 ft | 188 kts | 257° |
| 2026-05-05 18:17 | 31.99168 | 34.75590 | 5768 ft | 189 kts | 266° |
| 2026-05-05 18:18 | 31.99424 | 34.74102 | 6418 ft | 186 kts | 289° |
| 2026-05-05 18:18 | 31.99878 | 34.72655 | 6917 ft | 192 kts | 288° |
| 2026-05-05 18:18 | 32.00327 | 34.71163 | 7415 ft | 195 kts | 288° |
| 2026-05-05 18:18 | 32.00791 | 34.69643 | 7863 ft | 202 kts | 288° |
| 2026-05-05 18:19 | 32.01275 | 34.68072 | 8255 ft | 211 kts | 289° |
| 2026-05-05 18:19 | 32.01789 | 34.66412 | 8663 ft | 220 kts | 289° |
| 2026-05-05 18:19 | 32.02327 | 34.64676 | 9077 ft | 231 kts | 289° |
| 2026-05-05 18:19 | 32.02765 | 34.62794 | 9427 ft | 247 kts | 275° |
| 2026-05-05 18:20 | 32.02845 | 34.60714 | 9878 ft | 262 kts | 273° |
| 2026-05-05 18:20 | 32.02903 | 34.59237 | 10135 ft | 272 kts | 274° |
| 2026-05-05 18:20 | 32.03047 | 34.56229 | 10627 ft | 285 kts | 274° |
| 2026-05-05 18:20 | 32.03171 | 34.53844 | 11015 ft | 299 kts | 274° |
| 2026-05-05 18:21 | 32.03304 | 34.51336 | 11405 ft | 314 kts | 274° |
| 2026-05-05 18:21 | 32.03442 | 34.48718 | 11794 ft | 327 kts | 274° |
| 2026-05-05 18:21 | 32.03586 | 34.45990 | 12191 ft | 340 kts | 274° |
| 2026-05-05 18:21 | 32.03737 | 34.43160 | 12576 ft | 352 kts | 274° |
| 2026-05-05 18:22 | 32.03903 | 34.40241 | 12974 ft | 362 kts | 274° |
| 2026-05-05 18:22 | 32.04077 | 34.37244 | 13367 ft | 370 kts | 274° |
| 2026-05-05 18:22 | 32.04252 | 34.34211 | 13756 ft | 372 kts | 274° |
| 2026-05-05 18:22 | 32.04427 | 34.31169 | 14109 ft | 372 kts | 274° |
| 2026-05-05 18:23 | 32.04600 | 34.28120 | 14457 ft | 373 kts | 274° |
| 2026-05-05 18:23 | 32.04776 | 34.25067 | 14809 ft | 374 kts | 275° |
| 2026-05-05 18:23 | 32.05356 | 34.22079 | 15140 ft | 377 kts | 292° |
| 2026-05-05 18:23 | 32.06604 | 34.19355 | 15544 ft | 379 kts | 299° |
| 2026-05-05 18:24 | 32.07985 | 34.16696 | 15895 ft | 381 kts | 300° |
| 2026-05-05 18:24 | 32.09385 | 34.14027 | 16286 ft | 384 kts | 300° |
| 2026-05-05 18:24 | 32.10784 | 34.11334 | 16658 ft | 387 kts | 300° |
| 2026-05-05 18:24 | 32.12179 | 34.08616 | 17148 ft | 385 kts | 299° |
| 2026-05-05 18:25 | 32.13560 | 34.05904 | 17799 ft | 387 kts | 299° |
| 2026-05-05 18:25 | 32.14009 | 34.05019 | 17952 ft | 389 kts | 299° |
| 2026-05-05 18:25 | 32.15885 | 34.01311 | 18571 ft | 397 kts | 298° |
| 2026-05-05 18:25 | 32.17292 | 33.98482 | 18998 ft | 401 kts | 297° |
| 2026-05-05 18:26 | 32.18589 | 33.95551 | 19421 ft | 404 kts | 294° |
| 2026-05-05 18:26 | 32.19817 | 33.92571 | 19860 ft | 404 kts | 294° |
| 2026-05-05 18:26 | 32.21023 | 33.89574 | 20297 ft | 404 kts | 293° |
| 2026-05-05 18:26 | 32.22228 | 33.86576 | 20734 ft | 404 kts | 293° |
| 2026-05-05 18:27 | 32.23439 | 33.83581 | 21191 ft | 404 kts | 293° |
| 2026-05-05 18:27 | 32.24656 | 33.80589 | 21642 ft | 404 kts | 293° |
| 2026-05-05 18:27 | 32.25877 | 33.77605 | 22112 ft | 403 kts | 293° |
| 2026-05-05 18:27 | 32.27101 | 33.74622 | 22585 ft | 404 kts | 293° |
| 2026-05-05 18:28 | 32.29567 | 33.68622 | 23566 ft | 407 kts | 293° |
| 2026-05-05 18:28 | 32.30808 | 33.65602 | 23975 ft | 409 kts | 293° |
| 2026-05-05 18:28 | 32.32050 | 33.62577 | 24398 ft | 410 kts | 293° |
| 2026-05-05 18:29 | 32.33295 | 33.59542 | 24811 ft | 411 kts | 293° |
| 2026-05-05 18:29 | 32.34541 | 33.56503 | 25253 ft | 411 kts | 293° |
| 2026-05-05 18:29 | 32.35789 | 33.53457 | 25679 ft | 412 kts | 293° |
| 2026-05-05 18:29 | 32.37036 | 33.50410 | 26119 ft | 412 kts | 293° |
| 2026-05-05 18:30 | 32.38266 | 33.47401 | 26560 ft | 412 kts | 293° |
| 2026-05-05 18:30 | 32.39511 | 33.44353 | 27014 ft | 411 kts | 293° |
| 2026-05-05 18:30 | 32.40752 | 33.41311 | 27473 ft | 410 kts | 293° |
| 2026-05-05 18:30 | 32.41991 | 33.38274 | 27939 ft | 409 kts | 292° |
| 2026-05-05 18:31 | 32.43225 | 33.35245 | 28413 ft | 408 kts | 292° |
| 2026-05-05 18:31 | 32.44456 | 33.32222 | 28895 ft | 407 kts | 292° |
| 2026-05-05 18:31 | 32.45679 | 33.29214 | 29393 ft | 405 kts | 292° |
| 2026-05-05 18:31 | 32.46899 | 33.26213 | 29884 ft | 403 kts | 292° |
| 2026-05-05 18:32 | 32.48111 | 33.23228 | 30345 ft | 401 kts | 292° |
| 2026-05-05 18:32 | 32.49316 | 33.20257 | 30772 ft | 399 kts | 292° |
| 2026-05-05 18:32 | 32.50514 | 33.17302 | 31205 ft | 397 kts | 292° |
| 2026-05-05 18:32 | 32.51705 | 33.14361 | 31652 ft | 395 kts | 292° |
| 2026-05-05 18:33 | 32.52886 | 33.11441 | 32099 ft | 392 kts | 292° |
| 2026-05-05 18:33 | 32.54061 | 33.08537 | 32552 ft | 389 kts | 292° |
| 2026-05-05 18:33 | 32.55226 | 33.05652 | 33012 ft | 386 kts | 292° |
| 2026-05-05 18:33 | 32.56381 | 33.02791 | 33481 ft | 383 kts | 291° |
| 2026-05-05 18:34 | 32.57527 | 32.99949 | 33940 ft | 380 kts | 291° |
| 2026-05-05 18:34 | 32.58672 | 32.97107 | 34043 ft | 385 kts | 291° |
| 2026-05-05 18:34 | 32.60991 | 32.91331 | 34071 ft | 396 kts | 291° |
| 2026-05-05 18:35 | 32.63380 | 32.85384 | 34077 ft | 401 kts | 292° |
| 2026-05-05 18:35 | 32.65789 | 32.79382 | 34078 ft | 404 kts | 292° |
| 2026-05-05 18:36 | 32.68204 | 32.73352 | 34074 ft | 405 kts | 292° |
| 2026-05-05 18:36 | 32.70618 | 32.67315 | 34067 ft | 404 kts | 292° |
| 2026-05-05 18:37 | 32.73020 | 32.61295 | 34072 ft | 402 kts | 292° |
| 2026-05-05 18:37 | 32.75407 | 32.55302 | 34066 ft | 400 kts | 292° |
| 2026-05-05 18:38 | 32.77780 | 32.49333 | 34067 ft | 399 kts | 292° |
| 2026-05-05 18:38 | 32.80235 | 32.43438 | 34052 ft | 401 kts | 301° |
| 2026-05-05 18:39 | 32.82134 | 32.40986 | 34082 ft | 408 kts | 315° |
| 2026-05-05 18:39 | 32.84482 | 32.39044 | 34060 ft | 417 kts | 326° |
| 2026-05-05 18:39 | 32.87177 | 32.37798 | 34074 ft | 426 kts | 337° |
| 2026-05-05 18:39 | 32.90045 | 32.36871 | 34068 ft | 428 kts | 339° |
| 2026-05-05 18:40 | 32.95847 | 32.35164 | 34068 ft | 430 kts | 340° |
| 2026-05-05 18:40 | 33.01659 | 32.33437 | 34063 ft | 431 kts | 340° |
| 2026-05-05 18:41 | 33.07463 | 32.31655 | 34058 ft | 431 kts | 339° |
| 2026-05-05 18:41 | 33.13259 | 32.29849 | 34059 ft | 431 kts | 339° |
| 2026-05-05 18:42 | 33.19055 | 32.28034 | 34082 ft | 431 kts | 340° |
| 2026-05-05 18:42 | 33.24849 | 32.26219 | 34066 ft | 431 kts | 340° |
| 2026-05-05 18:43 | 33.30645 | 32.24403 | 34056 ft | 430 kts | 340° |
| 2026-05-05 18:43 | 33.36429 | 32.22587 | 34057 ft | 430 kts | 340° |
| 2026-05-05 18:44 | 33.42208 | 32.20771 | 34060 ft | 429 kts | 340° |
| 2026-05-05 18:44 | 33.47979 | 32.18955 | 34053 ft | 429 kts | 340° |
| 2026-05-05 18:45 | 33.53743 | 32.17138 | 34048 ft | 428 kts | 340° |
| 2026-05-05 18:45 | 33.59496 | 32.15322 | 34051 ft | 427 kts | 340° |
| 2026-05-05 18:46 | 33.65245 | 32.13505 | 34055 ft | 427 kts | 340° |
| 2026-05-05 18:46 | 33.70981 | 32.11689 | 34053 ft | 426 kts | 340° |
| 2026-05-05 18:47 | 33.76717 | 32.09871 | 34058 ft | 426 kts | 340° |